createdAt,value
2018-04-22T00:00:16.343Z,21.87
2018-04-22T00:02:51.682Z,21.27
2018-04-22T00:05:27.011Z,22.37
2018-04-22T00:08:03.039Z,22.17
2018-04-22T00:10:38.200Z,23.33
2018-04-22T00:13:13.343Z,22.50
2018-04-22T00:15:49.489Z,22.27
2018-04-22T00:18:24.822Z,20.23
2018-04-22T00:21:00.076Z,22.43
2018-04-22T00:23:36.109Z,23.50
2018-04-22T00:26:12.013Z,21.53
2018-04-22T00:28:47.200Z,22.33
2018-04-22T00:31:22.521Z,25.40
2018-04-22T00:33:58.144Z,22.10
2018-04-22T00:36:34.106Z,22.30
2018-04-22T00:39:09.294Z,25.00
2018-04-22T00:41:45.354Z,22.10
2018-04-22T00:44:20.721Z,21.80
2018-04-22T00:46:55.866Z,23.93
2018-04-22T00:49:31.172Z,23.97
2018-04-22T00:52:06.454Z,24.90
2018-04-22T00:54:41.815Z,24.23
2018-04-22T00:57:17.116Z,23.73
2018-04-22T00:59:53.352Z,24.30
2018-04-22T01:02:28.697Z,23.03
2018-04-22T01:05:05.198Z,25.17
2018-04-22T01:07:40.404Z,23.57
2018-04-22T01:10:15.787Z,24.43
2018-04-22T01:12:50.856Z,25.73
2018-04-22T01:15:26.203Z,25.10
2018-04-22T01:18:01.404Z,24.97
2018-04-22T01:20:36.544Z,22.37
2018-04-22T01:23:11.896Z,24.80
2018-04-22T01:25:47.859Z,26.03
2018-04-22T01:28:22.975Z,25.40
2018-04-22T01:30:58.107Z,24.97
2018-04-22T01:33:33.347Z,25.50
2018-04-22T01:36:09.444Z,26.00
2018-04-22T01:38:44.544Z,26.40
2018-04-22T01:41:19.783Z,24.40
2018-04-22T01:43:55.156Z,24.97
2018-04-22T01:46:30.499Z,26.67
2018-04-22T01:49:06.459Z,26.20
2018-04-22T01:51:41.844Z,27.57
2018-04-22T01:54:17.765Z,25.00
2018-04-22T01:56:52.885Z,26.67
2018-04-22T01:59:28.267Z,25.33
2018-04-22T02:02:03.460Z,25.93
2018-04-22T02:04:38.756Z,25.50
2018-04-22T02:07:14.761Z,27.60
2018-04-22T02:09:50.055Z,25.60
2018-04-22T02:12:25.347Z,26.17
2018-04-22T02:15:00.671Z,26.70
2018-04-22T02:17:35.907Z,25.20
2018-04-22T02:20:11.550Z,27.07
2018-04-22T02:22:46.810Z,26.10
2018-04-22T02:25:24.987Z,25.77
2018-04-22T02:28:00.196Z,26.90
2018-04-22T02:30:35.349Z,24.90
2018-04-22T02:33:10.611Z,25.67
2018-04-22T02:35:45.692Z,26.53
2018-04-22T02:38:20.896Z,26.43
2018-04-22T02:40:55.987Z,26.20
2018-04-22T02:43:31.192Z,25.80
2018-04-22T02:46:06.481Z,25.63
2018-04-22T02:48:41.921Z,27.97
2018-04-22T02:51:17.016Z,26.47
2018-04-22T02:53:53.024Z,26.87
2018-04-22T02:56:29.073Z,25.23
2018-04-22T02:59:04.196Z,27.23
2018-04-22T03:01:39.483Z,24.37
2018-04-22T03:04:15.472Z,26.80
2018-04-22T03:06:50.619Z,27.27
2018-04-22T03:09:25.711Z,27.80
2018-04-22T03:12:00.924Z,27.17
2018-04-22T03:14:36.140Z,28.23
2018-04-22T03:17:11.427Z,27.50
2018-04-22T03:19:47.407Z,27.73
2018-04-22T03:22:22.540Z,27.13
2018-04-22T03:24:57.763Z,27.20
2018-04-22T03:27:32.992Z,27.37
2018-04-22T03:30:08.902Z,26.57
2018-04-22T03:32:44.089Z,27.37
2018-04-22T03:35:19.542Z,27.77
2018-04-22T03:37:54.884Z,26.30
2018-04-22T03:40:30.693Z,27.93
2018-04-22T03:43:06.816Z,27.07
2018-04-22T03:45:43.589Z,26.77
2018-04-22T03:48:18.973Z,27.53
2018-04-22T03:50:54.220Z,27.80
2018-04-22T03:53:29.505Z,27.63
2018-04-22T03:56:05.503Z,27.90
2018-04-22T03:58:40.694Z,28.50
2018-04-22T04:01:16.075Z,27.80
2018-04-22T04:03:52.099Z,29.20
2018-04-22T04:06:28.218Z,27.77
2018-04-22T04:09:03.293Z,27.70
2018-04-22T04:11:38.483Z,27.57
2018-04-22T04:14:14.450Z,27.03
2018-04-22T04:16:50.495Z,28.43
2018-04-22T04:19:43.774Z,26.90
2018-04-22T04:22:36.661Z,28.67
2018-04-22T04:38:45.124Z,26.10
2018-04-22T04:41:21.129Z,27.10
2018-04-22T04:43:56.299Z,27.03
2018-04-22T04:46:31.447Z,29.40
2018-04-22T04:49:06.779Z,29.00
2018-04-22T04:51:41.938Z,27.80
2018-04-22T04:54:17.925Z,26.60
2018-04-22T04:56:53.152Z,28.20
2018-04-22T04:59:28.355Z,29.17
2018-04-22T05:02:03.564Z,26.40
2018-04-22T05:04:38.752Z,27.20
2018-04-22T05:07:13.829Z,29.50
2018-04-22T05:09:49.830Z,27.20
2018-04-22T05:12:25.194Z,28.13
2018-04-22T05:15:00.348Z,28.63
2018-04-22T05:17:35.720Z,27.23
2018-04-22T05:20:10.915Z,28.03
2018-04-22T05:22:46.258Z,27.13
2018-04-22T05:25:21.600Z,33.53
2018-04-22T05:27:56.945Z,28.33
2018-04-22T05:30:32.149Z,27.83
2018-04-22T05:33:08.035Z,24.83
2018-04-22T05:35:43.191Z,25.27
2018-04-22T05:38:18.492Z,24.87
2018-04-22T05:40:54.530Z,25.67
2018-04-22T05:43:29.712Z,26.33
2018-04-22T05:46:06.481Z,24.10
2018-04-22T05:48:42.387Z,26.53
2018-04-22T05:51:17.727Z,25.00
2018-04-22T05:53:52.997Z,25.77
2018-04-22T05:56:28.239Z,22.87
2018-04-22T05:59:03.619Z,24.50
2018-04-22T06:01:38.991Z,24.63
2018-04-22T06:04:14.268Z,25.23
2018-04-22T06:06:49.652Z,24.50
2018-04-22T06:09:24.955Z,24.23
2018-04-22T06:12:00.100Z,22.30
2018-04-22T06:14:35.536Z,23.87
2018-04-22T06:17:10.722Z,24.03
2018-04-22T06:19:46.538Z,22.07
2018-04-22T06:22:21.659Z,23.80
2018-04-22T06:24:57.696Z,23.77
2018-04-22T06:27:32.899Z,21.40
2018-04-22T06:30:08.027Z,21.40
2018-04-22T06:32:43.354Z,20.57
2018-04-22T06:35:18.723Z,20.33
2018-04-22T06:37:54.042Z,20.20
2018-04-22T06:40:29.351Z,21.67
2018-04-22T06:43:04.765Z,19.97
2018-04-22T06:45:40.041Z,22.27
2018-04-22T06:48:15.240Z,20.73
2018-04-22T06:50:50.552Z,21.80
2018-04-22T06:53:25.929Z,20.87
2018-04-22T06:56:01.923Z,21.37
2018-04-22T06:58:37.263Z,22.27
2018-04-22T07:01:12.775Z,20.47
2018-04-22T07:03:47.953Z,19.90
2018-04-22T07:06:24.037Z,22.07
2018-04-22T07:08:59.420Z,19.90
2018-04-22T07:11:35.553Z,19.90
2018-04-22T07:14:12.349Z,20.20
2018-04-22T07:16:47.905Z,19.83
2018-04-22T07:19:24.059Z,21.17
2018-04-22T07:21:59.296Z,18.90
2018-04-22T07:24:34.555Z,18.67
2018-04-22T07:27:10.457Z,20.60
2018-04-22T07:29:46.409Z,18.80
2018-04-22T07:32:22.272Z,19.70
2018-04-22T07:34:57.430Z,18.80
2018-04-22T07:37:32.574Z,18.77
2018-04-22T07:40:07.728Z,17.87
2018-04-22T07:42:43.196Z,17.60
2018-04-22T07:45:19.160Z,18.20
2018-04-22T07:47:54.306Z,17.17
2018-04-22T07:50:30.346Z,17.47
2018-04-22T07:53:05.716Z,16.67
2018-04-22T07:55:41.041Z,17.80
2018-04-22T07:58:16.230Z,17.17
2018-04-22T08:00:51.408Z,16.57
2018-04-22T08:03:27.395Z,16.60
2018-04-22T08:06:02.609Z,15.70
2018-04-22T08:08:37.860Z,15.80
2018-04-22T08:11:14.888Z,17.37
2018-04-22T08:13:52.003Z,16.70
2018-04-22T08:16:28.609Z,15.67
2018-04-22T08:19:06.557Z,16.70
2018-04-22T08:21:43.389Z,16.27
2018-04-22T08:24:18.647Z,16.57
2018-04-22T08:26:55.703Z,15.10
2018-04-22T08:29:32.124Z,14.13
2018-04-22T08:32:09.905Z,15.30
2018-04-22T08:34:45.451Z,17.47
2018-04-22T08:37:20.675Z,15.30
2018-04-22T08:39:57.927Z,16.73
2018-04-22T08:42:33.147Z,15.77
2018-04-22T08:45:08.493Z,14.27
2018-04-22T08:47:44.053Z,15.27
2018-04-22T08:50:19.398Z,15.77
2018-04-22T08:52:54.893Z,15.03
2018-04-22T08:55:30.822Z,14.53
2018-04-22T08:58:06.774Z,15.80
2018-04-22T09:00:42.823Z,16.03
2018-04-22T09:03:18.040Z,14.43
2018-04-22T09:05:55.999Z,13.27
2018-04-22T09:08:31.170Z,15.27
2018-04-22T09:11:06.416Z,14.30
2018-04-22T09:13:41.619Z,12.60
2018-04-22T09:16:16.881Z,12.23
2018-04-22T09:18:51.992Z,13.87
2018-04-22T09:21:27.405Z,12.53
2018-04-22T09:24:03.377Z,14.37
2018-04-22T09:26:39.192Z,12.40
2018-04-22T09:29:15.269Z,14.47
2018-04-22T09:31:51.802Z,12.70
2018-04-22T09:34:27.151Z,13.00
2018-04-22T09:37:02.474Z,12.83
2018-04-22T09:39:37.755Z,11.80
2018-04-22T09:42:12.953Z,12.00
2018-04-22T09:44:48.180Z,11.37
2018-04-22T09:47:23.493Z,11.93
2018-04-22T09:49:59.358Z,11.47
2018-04-22T09:52:34.688Z,11.20
2018-04-22T09:55:10.875Z,11.00
2018-04-22T09:57:46.881Z,11.47
2018-04-22T10:00:28.442Z,10.23
2018-04-22T10:03:07.637Z,10.07
2018-04-22T10:05:48.412Z,10.00
2018-04-22T10:08:23.844Z,11.20
2018-04-22T10:10:59.758Z,11.10
2018-04-22T10:13:35.077Z,11.47
2018-04-22T10:16:10.395Z,9.63
2018-04-22T10:18:45.514Z,10.17
2018-04-22T10:21:20.813Z,10.73
2018-04-22T10:23:57.341Z,11.17
2018-04-22T10:26:33.277Z,10.60
2018-04-22T10:29:08.608Z,11.17
2018-04-22T10:31:44.035Z,9.33
2018-04-22T10:34:19.370Z,9.97
2018-04-22T10:36:55.184Z,10.47
2018-04-22T10:39:30.377Z,9.40
2018-04-22T10:42:07.754Z,8.00
2018-04-22T10:44:43.303Z,9.60
2018-04-22T10:47:19.155Z,8.70
2018-04-22T10:49:54.547Z,6.57
2018-04-22T10:52:29.863Z,8.07
2018-04-22T10:55:05.156Z,7.80
2018-04-22T10:57:40.519Z,8.03
2018-04-22T11:00:15.807Z,7.50
2018-04-22T11:02:51.145Z,7.77
2018-04-22T11:05:26.328Z,9.17
2018-04-22T11:08:01.661Z,25.10
2018-04-22T11:10:36.827Z,9.43
2018-04-22T11:13:11.968Z,9.30
2018-04-22T11:15:47.350Z,7.87
2018-04-22T11:18:22.646Z,18.00
2018-04-22T11:20:57.801Z,7.17
2018-04-22T11:23:32.980Z,8.40
2018-04-22T11:26:08.232Z,7.33
2018-04-22T11:28:43.492Z,7.57
2018-04-22T11:31:19.354Z,7.50
2018-04-22T11:33:55.316Z,8.30
2018-04-22T11:36:30.643Z,7.30
2018-04-22T11:39:06.845Z,7.60
2018-04-22T11:41:42.146Z,7.00
2018-04-22T11:44:18.160Z,6.40
2018-04-22T11:46:53.307Z,7.53
2018-04-22T11:49:28.619Z,7.53
2018-04-22T11:52:03.695Z,7.57
2018-04-22T11:54:38.860Z,8.70
2018-04-22T11:57:14.298Z,7.30
2018-04-22T11:59:50.486Z,8.27
2018-04-22T12:02:26.163Z,7.10
2018-04-22T12:05:04.082Z,7.37
2018-04-22T12:07:39.345Z,7.33
2018-04-22T12:10:14.557Z,6.57
2018-04-22T12:12:50.558Z,6.70
2018-04-22T12:15:25.912Z,8.60
2018-04-22T12:18:01.799Z,6.70
2018-04-22T12:20:37.004Z,6.80
2018-04-22T12:23:12.311Z,7.07
2018-04-22T12:25:49.769Z,6.30
2018-04-22T12:28:25.685Z,6.77
2018-04-22T12:31:01.049Z,7.77
2018-04-22T12:33:36.306Z,7.33
2018-04-22T12:36:12.229Z,8.77
2018-04-22T12:38:48.184Z,7.90
2018-04-22T12:41:23.512Z,8.23
2018-04-22T12:43:58.968Z,8.10
2018-04-22T12:46:34.273Z,7.00
2018-04-22T12:49:09.397Z,6.20
2018-04-22T12:51:44.709Z,6.43
2018-04-22T12:54:19.908Z,7.00
2018-04-22T12:56:55.283Z,5.33
2018-04-22T12:59:30.609Z,6.60
2018-04-22T13:02:05.800Z,6.60
2018-04-22T13:04:41.794Z,6.40
2018-04-22T13:07:17.770Z,5.83
2018-04-22T13:09:53.728Z,7.60
2018-04-22T13:12:29.929Z,5.80
2018-04-22T13:15:05.977Z,7.67
2018-04-22T13:17:41.895Z,6.47
2018-04-22T13:20:17.045Z,5.60
2018-04-22T13:22:52.989Z,11.03
2018-04-22T13:25:28.172Z,5.50
2018-04-22T13:28:03.434Z,4.97
2018-04-22T13:30:38.571Z,6.80
2018-04-22T13:33:13.832Z,4.60
2018-04-22T13:35:49.210Z,4.03
2018-04-22T13:38:24.391Z,4.00
2018-04-22T13:40:59.703Z,3.90
2018-04-22T13:43:35.804Z,7.10
2018-04-22T13:46:11.093Z,5.30
2018-04-22T13:48:46.469Z,3.77
2018-04-22T13:51:21.658Z,3.73
2018-04-22T13:53:56.969Z,4.80
2018-04-22T13:56:32.204Z,4.00
2018-04-22T13:59:07.476Z,4.50
2018-04-22T14:01:42.857Z,4.13
2018-04-22T14:04:18.008Z,4.35
2018-04-22T14:06:53.405Z,3.80
2018-04-22T14:09:28.700Z,4.20
2018-04-22T14:12:03.979Z,3.73
2018-04-22T14:14:39.276Z,4.10
2018-04-22T14:17:14.342Z,3.80
2018-04-22T14:19:49.705Z,4.50
2018-04-22T14:22:24.794Z,3.50
2018-04-22T14:25:01.140Z,3.90
2018-04-22T14:27:36.344Z,3.60
2018-04-22T14:30:11.724Z,3.27
2018-04-22T14:32:48.290Z,4.40
2018-04-22T14:35:23.568Z,3.60
2018-04-22T14:37:58.893Z,3.90
2018-04-22T14:40:34.135Z,4.23
2018-04-22T14:43:10.017Z,3.40
2018-04-22T14:46:03.063Z,3.57
2018-04-22T15:02:12.500Z,4.53
2018-04-22T15:04:47.773Z,4.80
2018-04-22T15:07:23.012Z,4.20
2018-04-22T15:09:58.188Z,3.70
2018-04-22T15:12:34.402Z,4.50
2018-04-22T15:15:10.305Z,3.90
2018-04-22T15:17:45.457Z,4.30
2018-04-22T15:20:20.634Z,3.80
2018-04-22T15:22:56.048Z,4.33
2018-04-22T15:25:31.354Z,4.40
2018-04-22T15:28:07.822Z,4.67
2018-04-22T15:30:42.915Z,4.23
2018-04-22T15:33:18.297Z,6.13
2018-04-22T15:35:53.649Z,4.40
2018-04-22T15:38:29.812Z,4.90
2018-04-22T15:41:04.919Z,5.40
2018-04-22T15:43:40.910Z,4.33
2018-04-22T15:46:17.429Z,4.55
2018-04-22T15:48:53.331Z,5.40
2018-04-22T15:51:28.525Z,4.57
2018-04-22T15:54:03.981Z,6.90
2018-04-22T15:56:39.245Z,4.03
2018-04-22T15:59:15.216Z,4.43
2018-04-22T16:01:50.505Z,4.90
2018-04-22T16:04:26.558Z,4.97
2018-04-22T16:07:02.469Z,4.90
2018-04-22T16:09:38.507Z,4.60
2018-04-22T16:12:14.620Z,5.53
2018-04-22T16:14:49.736Z,4.10
2018-04-22T16:17:28.895Z,4.87
2018-04-22T16:20:04.037Z,5.10
2018-04-22T16:22:39.148Z,4.27
2018-04-22T16:25:14.465Z,4.03
2018-04-22T16:27:49.691Z,4.40
2018-04-22T16:30:25.093Z,3.70
2018-04-22T16:33:00.930Z,3.43
2018-04-22T16:35:36.102Z,3.30
2018-04-22T16:38:11.566Z,3.90
2018-04-22T16:40:46.881Z,3.77
2018-04-22T16:43:22.954Z,2.93
2018-04-22T16:45:59.022Z,4.53
2018-04-22T16:48:35.117Z,2.87
2018-04-22T16:51:10.440Z,2.33
2018-04-22T16:53:45.779Z,2.90
2018-04-22T16:56:21.127Z,2.90
2018-04-22T16:58:56.456Z,3.27
2018-04-22T17:01:31.857Z,3.43
2018-04-22T17:04:07.082Z,3.23
2018-04-22T17:06:43.045Z,3.60
2018-04-22T17:09:18.209Z,3.40
2018-04-22T17:11:53.468Z,3.23
2018-04-22T17:14:28.729Z,3.13
2018-04-22T17:17:04.215Z,8.67
2018-04-22T17:19:39.481Z,3.63
2018-04-22T17:22:15.708Z,3.57
2018-04-22T17:24:50.962Z,3.30
2018-04-22T17:27:26.859Z,3.67
2018-04-22T17:30:02.256Z,3.40
2018-04-22T17:32:37.417Z,3.70
2018-04-22T17:35:12.701Z,3.30
2018-04-22T17:37:48.731Z,15.73
2018-04-22T17:40:24.141Z,4.53
2018-04-22T17:43:00.043Z,2.90
2018-04-22T17:45:35.276Z,9.97
2018-04-22T17:48:10.471Z,4.20
2018-04-22T17:50:45.794Z,4.27
2018-04-22T17:53:22.759Z,3.67
2018-04-22T17:55:57.940Z,3.30
2018-04-22T17:58:34.564Z,3.50
2018-04-22T18:01:09.649Z,2.97
2018-04-22T18:03:45.566Z,3.43
2018-04-22T18:06:21.542Z,3.77
2018-04-22T18:08:56.705Z,3.43
2018-04-22T18:11:31.941Z,3.27
2018-04-22T18:14:07.144Z,3.60
2018-04-22T18:16:42.468Z,3.40
2018-04-22T18:19:17.906Z,7.50
2018-04-22T18:21:54.223Z,3.87
2018-04-22T18:24:30.502Z,5.30
2018-04-22T18:27:05.842Z,5.73
2018-04-22T18:29:41.192Z,4.83
2018-04-22T18:32:16.343Z,3.50
2018-04-22T18:34:53.520Z,16.10
2018-04-22T18:37:28.576Z,3.00
2018-04-22T18:40:05.227Z,2.93
2018-04-22T18:42:40.354Z,3.60
2018-04-22T18:45:16.343Z,3.13
2018-04-22T18:47:51.462Z,2.93
2018-04-22T18:50:27.465Z,3.40
2018-04-22T18:53:02.614Z,3.03
2018-04-22T18:55:37.903Z,2.73
2018-04-22T18:58:13.219Z,2.93
2018-04-22T19:00:49.329Z,2.97
2018-04-22T19:03:24.470Z,3.40
2018-04-22T19:05:59.607Z,3.97
2018-04-22T19:08:35.585Z,3.57
2018-04-22T19:11:11.051Z,2.80
2018-04-22T19:13:46.554Z,3.17
2018-04-22T19:16:21.742Z,3.10
2018-04-22T19:18:57.962Z,2.93
2018-04-22T19:21:33.140Z,2.43
2018-04-22T19:24:08.411Z,3.00
2018-04-22T19:26:43.739Z,2.60
2018-04-22T19:29:19.704Z,3.37
2018-04-22T19:31:54.918Z,2.63
2018-04-22T19:34:30.177Z,2.60
2018-04-22T19:37:05.498Z,3.00
2018-04-22T19:39:40.645Z,2.77
2018-04-22T19:42:16.090Z,3.07
2018-04-22T19:44:51.233Z,3.03
2018-04-22T19:47:26.613Z,3.00
2018-04-22T19:50:01.876Z,2.47
2018-04-22T19:52:37.031Z,2.93
2018-04-22T19:55:12.289Z,2.60
2018-04-22T19:57:47.563Z,2.73
2018-04-22T20:00:22.935Z,2.70
2018-04-22T20:02:57.991Z,2.87
2018-04-22T20:05:33.167Z,2.33
2018-04-22T20:08:08.294Z,2.77
2018-04-22T20:10:43.804Z,3.17
2018-04-22T20:13:19.181Z,3.57
2018-04-22T20:15:54.385Z,3.43
2018-04-22T20:18:30.271Z,2.80
2018-04-22T20:21:06.286Z,3.10
2018-04-22T20:23:41.575Z,2.40
2018-04-22T20:26:17.464Z,2.90
2018-04-22T20:28:52.569Z,2.47
2018-04-22T20:31:27.979Z,2.87
2018-04-22T20:34:03.622Z,3.47
2018-04-22T20:36:38.876Z,2.53
2018-04-22T20:39:14.421Z,2.60
2018-04-22T20:41:49.678Z,3.07
2018-04-22T20:44:24.826Z,3.37
2018-04-22T20:47:00.065Z,3.67
2018-04-22T20:49:35.401Z,3.30
2018-04-22T20:52:11.486Z,3.23
2018-04-22T20:54:46.793Z,3.20
2018-04-22T20:57:22.131Z,2.90
2018-04-22T20:59:57.471Z,3.17
2018-04-22T21:02:33.554Z,3.60
2018-04-22T21:05:08.722Z,3.10
2018-04-22T21:07:44.738Z,3.10
2018-04-22T21:10:20.747Z,2.80
2018-04-22T21:12:55.988Z,3.20
2018-04-22T21:15:31.304Z,4.70
2018-04-22T21:18:06.438Z,4.17
2018-04-22T21:20:42.483Z,3.37
2018-04-22T21:23:17.798Z,3.83
2018-04-22T21:25:53.040Z,3.77
2018-04-22T21:28:29.048Z,4.00
2018-04-22T21:31:04.469Z,3.70
2018-04-22T21:33:39.578Z,3.40
2018-04-22T21:36:14.922Z,5.27
2018-04-22T21:38:50.074Z,3.87
2018-04-22T21:41:26.183Z,3.57
2018-04-22T21:44:01.357Z,3.70
2018-04-22T21:46:36.640Z,3.10
2018-04-22T21:49:12.791Z,3.17
2018-04-22T21:51:47.994Z,3.37
2018-04-22T21:54:24.039Z,4.00
2018-04-22T21:56:59.104Z,3.43
2018-04-22T21:59:34.445Z,3.00
2018-04-22T22:02:09.738Z,3.30
2018-04-22T22:04:45.009Z,3.10
2018-04-22T22:07:20.373Z,3.83
2018-04-22T22:09:56.222Z,3.23
2018-04-22T22:12:31.478Z,2.97
2018-04-22T22:15:06.578Z,3.80
2018-04-22T22:17:41.900Z,4.07
2018-04-22T22:20:17.069Z,3.67
2018-04-22T22:22:52.326Z,3.57
2018-04-22T22:25:27.805Z,3.30
2018-04-22T22:28:02.887Z,3.27
2018-04-22T22:30:38.226Z,3.17
2018-04-22T22:33:14.209Z,3.00
2018-04-22T22:35:49.452Z,3.30
2018-04-22T22:38:24.663Z,4.27
2018-04-22T22:40:59.988Z,3.10
2018-04-22T22:43:35.198Z,3.30
2018-04-22T22:46:11.167Z,3.23
2018-04-22T22:48:47.227Z,3.17
2018-04-22T22:51:22.508Z,3.70
2018-04-22T22:53:57.841Z,3.33
2018-04-22T22:56:33.188Z,5.80
2018-04-22T22:59:08.331Z,3.50
2018-04-22T23:01:43.619Z,4.10
2018-04-22T23:04:18.911Z,3.47
2018-04-22T23:06:54.314Z,4.30
2018-04-22T23:09:30.845Z,3.00
2018-04-22T23:12:06.068Z,3.70
2018-04-22T23:14:42.057Z,3.53
2018-04-22T23:17:17.253Z,3.60
2018-04-22T23:19:52.387Z,3.80
2018-04-22T23:25:09.074Z,3.70
2018-04-22T23:27:44.200Z,3.23
2018-04-22T23:30:20.117Z,3.60
2018-04-22T23:32:55.988Z,4.00
2018-04-22T23:35:31.071Z,4.43
2018-04-22T23:38:06.429Z,3.63
2018-04-22T23:40:42.293Z,4.17
2018-04-22T23:43:17.411Z,3.67
2018-04-22T23:45:53.882Z,3.37
2018-04-22T23:48:28.959Z,3.37
2018-04-22T23:51:04.262Z,3.77
2018-04-22T23:53:39.642Z,3.80
2018-04-22T23:56:14.748Z,3.50
2018-04-22T23:58:50.187Z,3.90
